createdAt,value
2022-12-19T00:01:58.800Z,65.10
2022-12-19T00:04:26.843Z,65.08
2022-12-19T00:06:55.033Z,65.48
2022-12-19T00:09:22.930Z,65.07
2022-12-19T00:11:50.858Z,65.41
2022-12-19T00:14:18.791Z,65.43
2022-12-19T00:16:48.108Z,65.60
2022-12-19T00:19:16.054Z,65.41
2022-12-19T00:21:43.924Z,65.39
2022-12-19T00:24:21.133Z,65.44
2022-12-19T00:26:49.730Z,65.44
2022-12-19T00:29:17.672Z,65.45
2022-12-19T00:31:47.018Z,65.12
2022-12-19T00:34:15.519Z,65.38
2022-12-19T00:36:43.389Z,65.60
2022-12-19T00:39:11.822Z,65.07
2022-12-19T00:41:42.130Z,65.41
2022-12-19T00:44:11.665Z,65.31
2022-12-19T00:46:39.591Z,65.55
2022-12-19T00:49:08.824Z,65.14
2022-12-19T00:51:37.854Z,65.23
2022-12-19T00:54:07.317Z,65.54
2022-12-19T00:56:37.724Z,65.47
2022-12-19T00:59:06.310Z,65.30
2022-12-19T01:01:35.939Z,65.07
2022-12-19T01:04:27.857Z,65.12
2022-12-19T01:06:53.552Z,65.21
2022-12-19T01:09:21.800Z,65.13
2022-12-19T01:12:07.301Z,65.27
2022-12-19T01:14:35.237Z,65.08
2022-12-19T01:17:03.138Z,65.33
2022-12-19T01:19:35.148Z,65.09
2022-12-19T01:22:07.001Z,65.16
2022-12-19T01:24:35.375Z,65.45
2022-12-19T01:27:03.261Z,65.08
2022-12-19T01:29:31.166Z,65.58
2022-12-19T01:32:01.170Z,65.28
2022-12-19T01:34:29.092Z,65.58
2022-12-19T01:36:57.035Z,65.54
2022-12-19T01:39:27.552Z,65.46
2022-12-19T01:41:58.841Z,65.72
2022-12-19T01:44:27.028Z,65.57
2022-12-19T01:46:57.545Z,65.40
2022-12-19T01:49:27.763Z,65.25
2022-12-19T01:51:56.723Z,65.06
2022-12-19T01:54:28.038Z,65.46
2022-12-19T01:56:57.015Z,65.11
2022-12-19T01:59:26.806Z,65.44
2022-12-19T02:01:56.431Z,65.33
2022-12-19T02:04:24.897Z,65.14
2022-12-19T02:06:55.190Z,65.13
2022-12-19T02:09:25.698Z,65.10
2022-12-19T02:11:54.946Z,65.53
2022-12-19T02:14:22.874Z,65.34
2022-12-19T02:16:56.564Z,65.63
2022-12-19T02:20:00.013Z,65.06
2022-12-19T02:22:29.499Z,65.07
2022-12-19T02:25:18.906Z,65.07
2022-12-19T02:28:08.834Z,65.36
2022-12-19T02:30:46.527Z,65.00
2022-12-19T02:33:17.380Z,65.49
2022-12-19T02:35:46.541Z,65.23
2022-12-19T02:38:17.379Z,65.24
2022-12-19T02:40:46.538Z,65.24
2022-12-19T02:43:17.923Z,65.42
2022-12-19T02:45:47.221Z,65.29
2022-12-19T02:48:19.242Z,65.03
2022-12-19T02:50:50.470Z,64.79
2022-12-19T02:53:23.491Z,64.89
2022-12-19T02:55:56.876Z,64.83
2022-12-19T02:58:33.823Z,64.93
2022-12-19T03:01:09.006Z,64.97
2022-12-19T03:03:41.354Z,65.21
2022-12-19T03:06:13.685Z,64.99
2022-12-19T03:08:53.439Z,65.10
2022-12-19T03:11:21.298Z,65.35
2022-12-19T03:13:51.241Z,65.19
2022-12-19T03:16:20.588Z,64.95
2022-12-19T03:18:48.492Z,65.30
2022-12-19T03:21:18.966Z,64.86
2022-12-19T03:23:46.887Z,65.18
2022-12-19T03:26:17.321Z,64.84
2022-12-19T03:28:46.764Z,65.30
2022-12-19T03:31:15.199Z,65.16
2022-12-19T03:33:44.483Z,64.96
2022-12-19T03:36:15.504Z,64.71
2022-12-19T03:38:44.717Z,65.13
2022-12-19T03:41:13.083Z,64.82
2022-12-19T03:43:39.990Z,64.82
2022-12-19T03:46:14.030Z,64.61
2022-12-19T03:48:45.335Z,64.78
2022-12-19T03:51:18.505Z,64.96
2022-12-19T03:53:50.432Z,65.03
2022-12-19T03:56:21.276Z,64.53
2022-12-19T03:58:51.081Z,64.94
2022-12-19T04:01:19.435Z,64.78
2022-12-19T04:03:48.904Z,64.89
2022-12-19T04:06:16.879Z,64.60
2022-12-19T04:08:44.771Z,64.51
2022-12-19T04:11:16.273Z,64.45
2022-12-19T04:13:45.120Z,64.63
2022-12-19T04:16:14.706Z,64.75
2022-12-19T04:18:42.924Z,64.51
2022-12-19T04:21:14.160Z,64.37
2022-12-19T04:23:43.901Z,64.90
2022-12-19T04:26:11.907Z,64.87
2022-12-19T04:28:41.642Z,64.71
2022-12-19T04:31:09.553Z,64.77
2022-12-19T04:33:37.501Z,64.33
2022-12-19T04:36:06.029Z,64.50
2022-12-19T04:38:35.325Z,64.76
2022-12-19T04:41:03.237Z,64.33
2022-12-19T04:43:31.126Z,64.53
2022-12-19T04:45:59.019Z,64.72
2022-12-19T04:48:27.058Z,64.56
2022-12-19T04:50:54.981Z,64.37
2022-12-19T04:53:22.877Z,64.38
2022-12-19T04:55:52.220Z,64.62
2022-12-19T04:58:22.075Z,64.25
2022-12-19T05:00:50.071Z,64.19
2022-12-19T05:03:17.988Z,64.36
2022-12-19T05:05:45.908Z,64.42
2022-12-19T05:08:13.774Z,64.66
2022-12-19T05:10:41.705Z,64.60
2022-12-19T05:13:11.303Z,64.58
2022-12-19T05:15:39.548Z,65.17
2022-12-19T05:18:07.480Z,64.81
2022-12-19T05:20:35.395Z,65.10
2022-12-19T05:23:06.625Z,65.31
2022-12-19T05:25:37.496Z,65.38
2022-12-19T05:28:05.791Z,65.17
2022-12-19T05:30:35.077Z,65.35
2022-12-19T05:33:02.989Z,65.20
2022-12-19T05:35:30.919Z,65.30
2022-12-19T05:37:58.814Z,65.59
2022-12-19T05:40:26.739Z,65.40
2022-12-19T05:42:54.627Z,65.67
2022-12-19T05:45:22.660Z,65.30
2022-12-19T05:47:51.929Z,65.46
2022-12-19T05:50:19.836Z,65.05
2022-12-19T05:52:47.724Z,65.14
2022-12-19T05:55:15.617Z,65.03
2022-12-19T05:57:43.518Z,65.30
2022-12-19T06:00:12.608Z,65.04
2022-12-19T06:02:40.632Z,65.19
2022-12-19T06:05:10.442Z,65.03
2022-12-19T06:07:38.741Z,64.78
2022-12-19T06:10:07.625Z,65.36
2022-12-19T06:12:35.561Z,64.85
2022-12-19T06:15:03.432Z,64.69
2022-12-19T06:17:31.469Z,65.03
2022-12-19T06:19:59.362Z,65.06
2022-12-19T06:22:28.627Z,64.67
2022-12-19T06:24:56.534Z,64.56
2022-12-19T06:27:24.436Z,64.59
2022-12-19T06:29:52.328Z,64.64
2022-12-19T06:32:20.254Z,64.50
2022-12-19T06:35:03.599Z,64.74
2022-12-19T06:37:33.614Z,64.80
2022-12-19T06:40:01.598Z,64.69
2022-12-19T06:42:28.514Z,64.58
2022-12-19T06:44:56.711Z,64.57
2022-12-19T06:47:24.789Z,64.58
2022-12-19T06:49:52.708Z,64.53
2022-12-19T06:52:20.660Z,64.49
2022-12-19T06:54:49.947Z,64.61
2022-12-19T06:57:17.827Z,64.63
2022-12-19T06:59:45.789Z,64.47
2022-12-19T07:02:22.795Z,64.83
2022-12-19T07:04:52.386Z,64.39
2022-12-19T07:07:20.573Z,64.36
2022-12-19T07:09:49.841Z,64.30
2022-12-19T07:12:17.744Z,64.62
2022-12-19T07:14:50.170Z,64.25
2022-12-19T07:17:21.001Z,64.34
2022-12-19T07:19:51.435Z,64.23
2022-12-19T07:22:19.370Z,64.33
2022-12-19T07:24:47.278Z,64.30
2022-12-19T07:27:16.690Z,64.13
2022-12-19T07:29:44.699Z,64.27
2022-12-19T07:32:12.677Z,64.07
2022-12-19T07:34:40.575Z,64.01
2022-12-19T07:37:08.614Z,63.91
2022-12-19T07:39:36.515Z,63.82
2022-12-19T07:42:04.622Z,64.21
2022-12-19T07:44:33.988Z,64.12
2022-12-19T07:47:01.909Z,63.74
2022-12-19T07:49:30.123Z,64.02
2022-12-19T07:51:58.068Z,63.64
2022-12-19T07:54:25.999Z,63.53
2022-12-19T07:56:53.907Z,63.83
2022-12-19T07:59:27.161Z,63.81
2022-12-19T08:01:59.157Z,63.55
2022-12-19T08:04:27.320Z,63.73
2022-12-19T08:06:55.204Z,63.70
2022-12-19T08:09:23.109Z,63.90
2022-12-19T08:11:50.960Z,63.79
2022-12-19T08:14:19.009Z,63.78
2022-12-19T08:17:18.642Z,63.35
2022-12-19T08:19:36.148Z,63.64
2022-12-19T08:22:04.323Z,63.30
2022-12-19T08:24:32.189Z,63.46
2022-12-19T08:27:00.137Z,63.34
2022-12-19T08:29:28.053Z,63.54
2022-12-19T08:31:55.945Z,63.53
2022-12-19T08:34:23.812Z,63.10
2022-12-19T08:36:53.215Z,63.17
2022-12-19T08:39:21.124Z,63.37
2022-12-19T08:41:49.020Z,63.42
2022-12-19T08:44:17.333Z,63.21
2022-12-19T08:46:50.040Z,63.59
2022-12-19T08:49:18.952Z,63.26
2022-12-19T08:51:47.328Z,63.37
2022-12-19T08:54:16.678Z,63.39
2022-12-19T08:56:46.618Z,63.04
2022-12-19T08:59:18.489Z,63.46
2022-12-19T09:01:58.820Z,62.91
2022-12-19T09:05:58.654Z,63.23
2022-12-19T09:07:15.714Z,63.06
2022-12-19T09:09:45.418Z,63.03
2022-12-19T09:12:13.626Z,63.08
2022-12-19T09:14:41.563Z,63.24
2022-12-19T09:17:10.115Z,63.30
2022-12-19T09:19:38.047Z,62.93
2022-12-19T09:22:06.979Z,63.00
2022-12-19T09:24:34.895Z,63.06
2022-12-19T09:27:04.164Z,63.34
2022-12-19T09:29:35.574Z,63.28
2022-12-19T09:32:03.790Z,63.24
2022-12-19T09:34:38.391Z,63.20
2022-12-19T09:37:07.721Z,63.00
2022-12-19T09:39:36.369Z,63.14
2022-12-19T09:42:41.311Z,63.16
2022-12-19T09:45:35.523Z,63.24
2022-12-19T09:48:03.438Z,63.49
2022-12-19T09:50:44.767Z,63.16
2022-12-19T09:53:17.970Z,63.23
2022-12-19T09:55:45.995Z,63.26
2022-12-19T09:58:17.582Z,63.31
2022-12-19T10:00:46.278Z,62.93
2022-12-19T10:03:19.679Z,63.29
2022-12-19T10:06:25.505Z,63.37
2022-12-19T10:08:46.298Z,63.24
2022-12-19T10:12:39.583Z,62.71
2022-12-19T10:14:34.509Z,62.96
2022-12-19T10:17:24.082Z,62.71
2022-12-19T10:20:20.441Z,62.66
2022-12-19T10:22:57.804Z,62.94
2022-12-19T10:25:41.229Z,63.16
2022-12-19T10:28:18.508Z,63.17
2022-12-19T10:30:51.065Z,62.73
2022-12-19T10:33:22.584Z,63.05
2022-12-19T10:35:54.694Z,63.05
2022-12-19T10:38:25.999Z,62.73
2022-12-19T10:40:56.367Z,62.82
2022-12-19T10:43:33.663Z,62.60
2022-12-19T10:46:16.123Z,62.56
2022-12-19T10:48:44.049Z,62.48
2022-12-19T10:51:13.863Z,62.34
2022-12-19T10:53:41.836Z,61.96
2022-12-19T10:56:14.096Z,61.42
2022-12-19T10:58:43.869Z,61.04
2022-12-19T11:01:14.554Z,60.77
2022-12-19T11:03:43.599Z,60.56
2022-12-19T11:06:43.255Z,60.23
2022-12-19T11:09:25.095Z,59.81
2022-12-19T11:16:46.275Z,59.96
2022-12-19T11:21:39.095Z,59.64
2022-12-19T11:22:16.956Z,59.78
2022-12-19T11:29:19.366Z,59.59
2022-12-19T11:30:07.043Z,59.69
2022-12-19T11:30:35.537Z,59.74
2022-12-19T11:30:45.727Z,59.74
2022-12-19T11:34:35.662Z,59.59
2022-12-19T11:37:08.122Z,60.06
2022-12-19T11:39:38.544Z,59.93
2022-12-19T11:42:09.490Z,59.74
2022-12-19T11:44:39.743Z,60.06
2022-12-19T11:47:13.347Z,60.00
2022-12-19T11:49:44.014Z,60.30
2022-12-19T11:53:01.814Z,60.42
2022-12-19T11:55:06.386Z,61.22
2022-12-19T11:57:34.295Z,61.66
2022-12-19T12:00:05.460Z,61.94
2022-12-19T12:03:05.885Z,62.15
2022-12-19T12:05:45.269Z,62.51
2022-12-19T12:10:16.185Z,62.45
2022-12-19T12:18:07.452Z,62.73
2022-12-19T12:22:18.275Z,62.75
2022-12-19T12:31:21.569Z,62.36
2022-12-19T12:31:26.003Z,62.41
2022-12-19T12:31:31.631Z,62.56
2022-12-19T12:31:50.062Z,62.54
2022-12-19T12:32:05.580Z,62.35
2022-12-19T12:35:33.434Z,62.53
2022-12-19T12:36:56.033Z,62.40
2022-12-19T12:40:55.402Z,62.12
2022-12-19T12:43:31.776Z,62.27
2022-12-19T12:45:59.705Z,62.12
2022-12-19T12:48:30.135Z,62.49
2022-12-19T12:50:58.080Z,62.67
2022-12-19T12:53:29.101Z,62.39
2022-12-19T12:55:58.448Z,62.54
2022-12-19T12:58:46.317Z,62.35
2022-12-19T13:01:17.899Z,62.49
2022-12-19T13:03:52.850Z,61.90
2022-12-19T13:06:25.973Z,62.21
2022-12-19T13:08:53.947Z,62.07
2022-12-19T13:11:55.776Z,61.75
2022-12-19T13:14:48.491Z,61.75
2022-12-19T13:17:20.072Z,61.74
2022-12-19T13:19:57.614Z,61.43
2022-12-19T13:22:40.814Z,61.25
2022-12-19T13:25:45.931Z,60.87
2022-12-19T13:28:42.558Z,60.32
2022-12-19T13:31:23.608Z,59.91
2022-12-19T13:34:19.362Z,59.51
2022-12-19T13:39:52.338Z,59.10
2022-12-19T13:39:54.295Z,59.36
2022-12-19T13:42:51.181Z,58.98
2022-12-19T13:45:26.374Z,58.73
2022-12-19T13:47:54.657Z,58.64
2022-12-19T13:50:25.025Z,58.84
2022-12-19T13:52:53.023Z,58.79
2022-12-19T13:55:21.059Z,58.90
2022-12-19T13:57:49.312Z,58.94
2022-12-19T14:00:19.153Z,59.09
2022-12-19T14:02:50.982Z,58.66
2022-12-19T14:05:33.915Z,58.33
2022-12-19T14:08:14.548Z,57.74
2022-12-19T14:11:35.579Z,57.30
2022-12-19T14:14:03.245Z,56.78
2022-12-19T14:16:43.563Z,56.17
2022-12-19T14:19:21.810Z,55.56
2022-12-19T14:22:11.900Z,55.63
2022-12-19T14:24:37.590Z,55.60
2022-12-19T14:28:19.581Z,55.90
2022-12-19T14:30:27.942Z,55.74
2022-12-19T14:33:39.753Z,56.02
2022-12-19T14:36:07.778Z,56.01
2022-12-19T14:39:25.720Z,56.14
2022-12-19T14:41:40.325Z,56.31
2022-12-19T14:52:35.073Z,56.57
2022-12-19T14:54:11.819Z,56.71
2022-12-19T14:54:16.720Z,57.00
2022-12-19T14:54:23.893Z,56.89
2022-12-19T14:56:13.011Z,57.42
2022-12-19T14:58:52.928Z,57.27
2022-12-19T15:01:24.183Z,57.60
2022-12-19T15:04:51.085Z,57.64
2022-12-19T15:07:09.331Z,57.68
2022-12-19T15:10:58.787Z,57.98
2022-12-19T15:14:50.734Z,58.08
2022-12-19T15:15:38.947Z,58.25
2022-12-19T15:18:19.455Z,58.35
2022-12-19T15:20:47.367Z,58.22
2022-12-19T15:23:21.472Z,58.48
2022-12-19T15:26:07.987Z,58.37
2022-12-19T15:28:39.933Z,58.38
2022-12-19T15:31:16.465Z,58.38
2022-12-19T15:34:14.243Z,58.63
2022-12-19T15:36:32.772Z,58.46
2022-12-19T15:39:00.723Z,58.13
2022-12-19T15:41:29.976Z,58.37
2022-12-19T15:44:05.711Z,58.21
2022-12-19T15:46:34.116Z,58.35
2022-12-19T15:49:02.374Z,58.33
2022-12-19T15:51:30.391Z,58.40
2022-12-19T15:54:15.587Z,58.30
2022-12-19T15:56:49.318Z,58.07
2022-12-19T15:59:24.345Z,58.00
2022-12-19T16:01:52.364Z,58.18
2022-12-19T16:04:20.592Z,58.37
2022-12-19T16:06:48.582Z,58.34
2022-12-19T16:09:21.190Z,58.13
2022-12-19T16:11:50.577Z,57.78
2022-12-19T16:14:18.518Z,58.13
2022-12-19T16:16:47.021Z,58.06
2022-12-19T16:19:24.504Z,58.08
2022-12-19T16:21:52.568Z,57.75
2022-12-19T16:24:20.500Z,58.10
2022-12-19T16:26:53.073Z,57.88
2022-12-19T16:29:21.774Z,57.89
2022-12-19T16:31:49.745Z,58.05
2022-12-19T16:34:19.354Z,58.20
2022-12-19T16:36:47.330Z,58.67
2022-12-19T16:39:15.593Z,58.99
2022-12-19T16:41:43.755Z,59.13
2022-12-19T16:44:19.543Z,59.09
2022-12-19T16:46:50.969Z,59.25
2022-12-19T16:49:19.927Z,59.64
2022-12-19T16:51:48.426Z,59.97
2022-12-19T16:54:16.687Z,60.00
2022-12-19T16:56:45.290Z,60.05
2022-12-19T16:59:16.745Z,60.07
2022-12-19T17:01:45.101Z,60.35
2022-12-19T17:04:14.813Z,60.23
2022-12-19T17:06:43.002Z,60.28
2022-12-19T17:09:13.686Z,60.07
2022-12-19T17:11:41.620Z,60.25
2022-12-19T17:14:12.646Z,60.56
2022-12-19T17:16:41.955Z,60.65
2022-12-19T17:19:10.389Z,60.40
2022-12-19T17:21:39.345Z,60.73
2022-12-19T17:24:10.450Z,60.36
2022-12-19T17:26:38.402Z,60.41
2022-12-19T17:29:07.526Z,60.32
2022-12-19T17:31:38.265Z,60.56
2022-12-19T17:34:09.395Z,60.60
2022-12-19T17:36:38.199Z,60.78
2022-12-19T17:39:11.964Z,60.61
2022-12-19T17:41:39.938Z,60.90
2022-12-19T17:44:07.840Z,60.91
2022-12-19T17:46:35.745Z,61.05
2022-12-19T17:49:03.723Z,61.09
2022-12-19T17:51:33.007Z,61.13
2022-12-19T17:54:00.978Z,61.68
2022-12-19T17:56:29.722Z,61.67
2022-12-19T17:58:57.598Z,61.75
2022-12-19T18:01:25.630Z,61.60
2022-12-19T18:03:54.010Z,61.71
2022-12-19T18:06:21.980Z,61.60
2022-12-19T18:08:51.264Z,61.67
2022-12-19T18:11:20.212Z,61.60
2022-12-19T18:13:48.141Z,61.62
2022-12-19T18:16:18.329Z,61.63
2022-12-19T18:18:46.649Z,61.80
2022-12-19T18:21:16.353Z,61.60
2022-12-19T18:23:44.277Z,61.90
2022-12-19T18:26:13.670Z,61.68
2022-12-19T18:28:41.673Z,62.06
2022-12-19T18:31:14.591Z,61.70
2022-12-19T18:33:43.364Z,61.66
2022-12-19T18:36:16.687Z,61.96
2022-12-19T18:38:44.967Z,62.04
2022-12-19T18:41:14.441Z,62.10
2022-12-19T18:43:42.427Z,62.15
2022-12-19T18:46:12.923Z,62.07
2022-12-19T18:48:40.979Z,61.99
2022-12-19T18:51:11.859Z,62.09
2022-12-19T18:53:39.897Z,62.43
2022-12-19T18:56:08.127Z,62.12
2022-12-19T18:58:37.406Z,62.50
2022-12-19T19:01:06.684Z,62.25
2022-12-19T19:03:36.429Z,61.97
2022-12-19T19:06:05.487Z,62.24
2022-12-19T19:08:34.190Z,62.21
2022-12-19T19:11:02.234Z,61.98
2022-12-19T19:13:31.483Z,62.45
2022-12-19T19:16:01.980Z,62.40
2022-12-19T19:18:33.761Z,62.51
2022-12-19T19:21:02.166Z,62.61
2022-12-19T19:23:33.559Z,62.25
2022-12-19T19:26:01.453Z,62.19
2022-12-19T19:28:29.373Z,62.39
2022-12-19T19:30:57.470Z,62.55
2022-12-19T19:33:28.177Z,62.34
2022-12-19T19:35:58.336Z,62.35
2022-12-19T19:38:26.392Z,62.57
2022-12-19T19:40:54.508Z,62.34
2022-12-19T19:43:22.423Z,62.63
2022-12-19T19:45:51.450Z,62.50
2022-12-19T19:48:19.415Z,62.31
2022-12-19T19:50:49.303Z,62.48
2022-12-19T19:53:17.499Z,62.50
2022-12-19T19:55:45.518Z,62.88
2022-12-19T19:58:13.693Z,62.58
2022-12-19T20:00:41.885Z,62.97
2022-12-19T20:03:12.810Z,62.74
2022-12-19T20:05:44.217Z,62.85
2022-12-19T20:08:13.865Z,63.28
2022-12-19T20:10:41.766Z,63.39
2022-12-19T20:13:11.287Z,63.39
2022-12-19T20:15:44.449Z,63.14
2022-12-19T20:18:15.950Z,63.62
2022-12-19T20:20:44.061Z,63.52
2022-12-19T20:23:13.703Z,63.61
2022-12-19T20:25:43.202Z,63.37
2022-12-19T20:28:11.230Z,63.62
2022-12-19T20:30:39.559Z,63.43
2022-12-19T20:33:07.912Z,63.53
2022-12-19T20:35:36.866Z,63.83
2022-12-19T20:38:05.009Z,63.53
2022-12-19T20:40:34.311Z,63.90
2022-12-19T20:43:02.255Z,63.72
2022-12-19T20:45:30.215Z,63.73
2022-12-19T20:47:58.219Z,63.71
2022-12-19T20:50:26.150Z,63.45
2022-12-19T20:52:54.091Z,63.57
2022-12-19T20:55:22.187Z,63.61
2022-12-19T20:57:51.429Z,63.61
2022-12-19T21:00:20.567Z,63.58
2022-12-19T21:03:25.802Z,63.22
2022-12-19T21:05:36.421Z,63.35
2022-12-19T21:08:04.462Z,63.65
2022-12-19T21:10:32.432Z,63.54
2022-12-19T21:13:01.795Z,63.28
2022-12-19T21:15:29.932Z,63.43
2022-12-19T21:17:57.782Z,63.23
2022-12-19T21:20:32.433Z,63.50
2022-12-19T21:23:02.031Z,63.93
2022-12-19T21:25:29.975Z,63.98
2022-12-19T21:27:57.880Z,63.88
2022-12-19T21:30:27.200Z,63.64
2022-12-19T21:32:55.636Z,63.80
2022-12-19T21:35:23.691Z,63.83
2022-12-19T21:37:52.100Z,63.65
2022-12-19T21:40:20.503Z,64.05
2022-12-19T21:42:48.501Z,64.03
2022-12-19T21:45:16.711Z,63.94
2022-12-19T21:47:46.032Z,63.93
2022-12-19T21:50:15.155Z,63.86
2022-12-19T21:52:43.161Z,63.91
2022-12-19T21:55:11.459Z,63.96
2022-12-19T21:57:40.140Z,64.03
2022-12-19T22:00:09.277Z,63.95
2022-12-19T22:02:37.386Z,64.15
2022-12-19T22:05:08.175Z,63.95
2022-12-19T22:07:36.099Z,64.32
2022-12-19T22:10:04.059Z,64.23
2022-12-19T22:12:31.968Z,64.37
2022-12-19T22:14:59.947Z,64.07
2022-12-19T22:17:27.947Z,63.95
2022-12-19T22:19:55.859Z,64.12
2022-12-19T22:22:25.176Z,63.82
2022-12-19T22:24:53.154Z,63.87
2022-12-19T22:27:21.629Z,63.88
2022-12-19T22:29:49.894Z,64.05
2022-12-19T22:32:17.826Z,64.16
2022-12-19T22:34:48.536Z,63.95
2022-12-19T22:37:16.794Z,63.62
2022-12-19T22:39:46.104Z,63.56
2022-12-19T22:42:13.977Z,63.62
2022-12-19T22:44:41.927Z,63.75
2022-12-19T22:47:09.868Z,63.56
2022-12-19T22:49:37.856Z,63.68
2022-12-19T22:52:06.207Z,63.29
2022-12-19T22:54:34.093Z,63.42
2022-12-19T22:57:03.352Z,63.41
2022-12-19T22:59:31.285Z,63.22
2022-12-19T23:01:59.355Z,63.15
2022-12-19T23:04:27.552Z,63.05
2022-12-19T23:06:55.461Z,63.15
2022-12-19T23:09:23.429Z,62.77
2022-12-19T23:11:51.441Z,62.79
2022-12-19T23:14:20.813Z,63.09
2022-12-19T23:16:48.812Z,63.08
2022-12-19T23:19:16.863Z,63.02
2022-12-19T23:21:44.800Z,63.02
2022-12-19T23:24:12.802Z,62.82
2022-12-19T23:26:40.711Z,62.77
2022-12-19T23:29:09.538Z,62.68
2022-12-19T23:31:40.441Z,62.55
2022-12-19T23:34:08.573Z,62.71
2022-12-19T23:39:24.356Z,62.89
2022-12-19T23:41:52.268Z,62.94
2022-12-19T23:44:20.372Z,63.34
2022-12-19T23:46:49.638Z,63.11
2022-12-19T23:49:17.608Z,63.50
2022-12-19T23:51:45.501Z,63.15
2022-12-19T23:54:13.438Z,63.36
2022-12-19T23:56:41.334Z,63.08
2022-12-19T23:59:09.235Z,63.33
